Time;durP1;ratioP1;P1;durP2;ratioP2;P2;SDS_P1;SDS_P2;PMS_P1;PMS_P2;Temp;Humidity;BMP_temperature;BMP_pressure;BME280_temperature;BME280_humidity;BME280_pressure;Samples;Min_cycle;Max_cycle;Signal;HPM_P1;HPM_P2
2022/08/26 00:02:16;;;;;;;73.63;61.53;;;;;;;;;;5027623;28;20193;-65
2022/08/26 00:04:41;;;;;;;71.45;59.80;;;;;;;;;;5024027;28;20182;-64
2022/08/26 00:07:07;;;;;;;77.18;63.13;;;;;;;;;;5027605;28;20560;-64
2022/08/26 00:09:32;;;;;;;80.18;63.20;;;;;;;;;;5038537;28;20193;-65
2022/08/26 00:11:58;;;;;;;76.70;63.75;;;;;;;;;;5029573;28;20317;-65
2022/08/26 00:14:24;;;;;;;77.40;65.05;;;;;;;;;;5027918;28;20626;-64
2022/08/26 00:16:49;;;;;;;78.32;65.75;;;;;;;;;;5027203;28;20189;-66
2022/08/26 00:19:17;;;;;;;75.43;63.97;;;;;;;;;;5020835;28;20198;-64
2022/08/26 00:21:42;;;;;;;77.78;64.93;;;;;;;;;;5027387;28;20174;-64
2022/08/26 00:24:08;;;;;;;78.53;64.32;;;;;;;;;;5014953;28;20575;-64
2022/08/26 00:26:33;;;;;;;80.55;65.85;;;;;;;;;;5029450;28;20184;-64
2022/08/26 00:28:59;;;;;;;79.03;66.05;;;;;;;;;;5023118;28;20264;-64
2022/08/26 00:31:24;;;;;;;79.90;64.10;;;;;;;;;;5027361;28;20679;-64
2022/08/26 00:33:50;;;;;;;84.13;66.38;;;;;;;;;;5026635;28;20642;-64
2022/08/26 00:36:15;;;;;;;77.65;65.70;;;;;;;;;;5023330;28;20182;-64
2022/08/26 00:38:41;;;;;;;81.78;66.57;;;;;;;;;;5017219;28;20260;-64
2022/08/26 00:41:06;;;;;;;78.97;64.43;;;;;;;;;;5029615;28;20232;-64
2022/08/26 00:43:35;;;;;;;79.35;66.05;;;;;;;;;;5017846;28;20179;-64
2022/08/26 00:46:12;;;;;;;82.30;66.43;;;;;;;;;;5028639;28;20190;-64
2022/08/26 00:48:39;;;;;;;90.60;70.28;;;;;;;;;;5014345;28;20377;-64
2022/08/26 00:51:15;;;;;;;75.95;60.70;;;;;;;;;;5017028;28;20193;-64
2022/08/26 00:53:48;;;;;;;85.93;69.03;;;;;;;;;;5022502;28;20705;-64
2022/08/26 00:56:35;;;;;;;85.57;71.22;;;;;;;;;;5028361;28;20492;-65
2022/08/26 00:59:05;;;;;;;86.32;71.07;;;;;;;;;;5021441;28;20276;-64
2022/08/26 01:01:30;;;;;;;83.95;69.53;;;;;;;;;;5027541;28;20221;-64
2022/08/26 01:03:56;;;;;;;90.30;71.70;;;;;;;;;;5022118;28;20464;-64
2022/08/26 01:06:23;;;;;;;91.78;72.10;;;;;;;;;;5028596;28;20213;-64
2022/08/26 01:08:50;;;;;;;87.70;70.03;;;;;;;;;;5022567;28;20212;-65
2022/08/26 01:11:15;;;;;;;94.65;72.03;;;;;;;;;;5022133;28;20187;-64
2022/08/26 01:13:41;;;;;;;88.63;72.03;;;;;;;;;;5015856;28;20279;-64
2022/08/26 01:16:11;;;;;;;95.18;72.93;;;;;;;;;;5029593;28;20189;-64
2022/08/26 01:18:39;;;;;;;91.95;71.45;;;;;;;;;;5028364;28;20220;-65
2022/08/26 01:21:14;;;;;;;92.45;72.13;;;;;;;;;;5028473;28;20248;-64
2022/08/26 01:23:42;;;;;;;92.10;70.45;;;;;;;;;;5019880;28;20269;-65
2022/08/26 01:26:15;;;;;;;87.82;71.05;;;;;;;;;;5014276;28;20234;-65
2022/08/26 01:28:42;;;;;;;87.15;69.95;;;;;;;;;;5019144;28;20186;-64
2022/08/26 01:31:11;;;;;;;96.40;70.28;;;;;;;;;;5031279;28;20177;-64
2022/08/26 01:34:00;;;;;;;89.55;68.60;;;;;;;;;;5024289;28;20260;-65
2022/08/26 01:36:26;;;;;;;91.35;66.57;;;;;;;;;;5029032;28;20267;-65
2022/08/26 01:38:52;;;;;;;91.22;66.40;;;;;;;;;;5019716;28;20182;-64
2022/08/26 01:41:18;;;;;;;86.32;66.57;;;;;;;;;;5028969;28;20466;-64
2022/08/26 01:43:46;;;;;;;92.30;67.47;;;;;;;;;;5019129;28;20229;-64
2022/08/26 01:46:13;;;;;;;87.93;64.57;;;;;;;;;;5025899;28;20243;-64
2022/08/26 01:48:41;;;;;;;90.13;66.22;;;;;;;;;;5019648;28;20182;-66
2022/08/26 01:51:09;;;;;;;89.72;63.97;;;;;;;;;;5028038;28;20551;-66
2022/08/26 01:53:35;;;;;;;91.70;67.05;;;;;;;;;;5020716;28;20222;-66
2022/08/26 01:56:02;;;;;;;87.70;64.20;;;;;;;;;;5026250;28;20197;-65
2022/08/26 01:58:41;;;;;;;94.15;64.18;;;;;;;;;;5022092;28;20261;-64
2022/08/26 02:01:06;;;;;;;82.53;61.80;;;;;;;;;;5025953;28;20252;-65
2022/08/26 02:03:33;;;;;;;88.13;63.10;;;;;;;;;;5025031;28;20313;-65
2022/08/26 02:06:03;;;;;;;87.70;60.88;;;;;;;;;;5026343;28;20186;-66
2022/08/26 02:08:42;;;;;;;85.10;60.58;;;;;;;;;;5016948;28;20182;-65
2022/08/26 02:11:08;;;;;;;84.00;62.42;;;;;;;;;;5028800;28;20244;-72
2022/08/26 02:13:38;;;;;;;77.25;59.05;;;;;;;;;;5025687;28;20226;-67
2022/08/26 02:16:04;;;;;;;82.60;61.25;;;;;;;;;;5019884;28;20646;-66
2022/08/26 02:18:32;;;;;;;79.30;58.97;;;;;;;;;;5030012;28;20196;-66
2022/08/26 02:20:58;;;;;;;81.30;56.55;;;;;;;;;;5025566;28;20429;-66
2022/08/26 02:23:23;;;;;;;79.55;57.25;;;;;;;;;;5027027;28;20229;-65
2022/08/26 02:25:55;;;;;;;78.03;55.05;;;;;;;;;;5024856;28;20234;-66
2022/08/26 02:28:20;;;;;;;74.45;54.75;;;;;;;;;;5019889;28;20569;-66
2022/08/26 02:30:46;;;;;;;81.85;56.08;;;;;;;;;;5029987;28;20257;-66
2022/08/26 02:33:12;;;;;;;72.70;53.25;;;;;;;;;;5036451;28;20214;-66
2022/08/26 02:35:38;;;;;;;75.18;52.92;;;;;;;;;;5029328;28;20186;-66
2022/08/26 02:38:05;;;;;;;77.70;51.70;;;;;;;;;;5030882;28;20181;-66
2022/08/26 02:40:35;;;;;;;67.82;51.03;;;;;;;;;;5028272;28;20257;-66
2022/08/26 02:43:01;;;;;;;66.75;49.95;;;;;;;;;;5026531;28;20178;-66
2022/08/26 02:45:27;;;;;;;64.00;49.58;;;;;;;;;;5024628;28;20189;-66
2022/08/26 02:47:55;;;;;;;70.95;48.75;;;;;;;;;;5031750;28;20208;-66
2022/08/26 02:50:21;;;;;;;67.88;46.78;;;;;;;;;;5030192;28;20178;-66
2022/08/26 02:52:47;;;;;;;59.78;44.25;;;;;;;;;;5016471;28;20206;-66
2022/08/26 02:55:12;;;;;;;58.35;45.63;;;;;;;;;;5027237;28;20201;-66
2022/08/26 02:57:38;;;;;;;57.42;42.95;;;;;;;;;;5025625;28;20642;-66
2022/08/26 03:00:07;;;;;;;63.67;43.38;;;;;;;;;;5029654;28;20691;-66
2022/08/26 03:02:32;;;;;;;57.42;42.22;;;;;;;;;;5031649;28;20194;-67
2022/08/26 03:04:58;;;;;;;60.05;43.47;;;;;;;;;;5029108;28;20296;-68
2022/08/26 03:07:23;;;;;;;58.05;41.78;;;;;;;;;;5032633;28;20209;-66
2022/08/26 03:09:49;;;;;;;60.50;42.42;;;;;;;;;;5033372;28;20205;-67
2022/08/26 03:12:14;;;;;;;53.55;40.20;;;;;;;;;;5022006;28;20296;-66
2022/08/26 03:14:39;;;;;;;55.13;40.83;;;;;;;;;;5022958;28;20182;-66
2022/08/26 03:17:05;;;;;;;51.50;37.45;;;;;;;;;;5029582;28;20212;-65
2022/08/26 03:19:30;;;;;;;50.25;36.70;;;;;;;;;;5030990;28;20197;-65
2022/08/26 03:21:56;;;;;;;55.03;37.30;;;;;;;;;;5031593;28;20647;-66
2022/08/26 03:24:22;;;;;;;46.35;35.50;;;;;;;;;;5016498;28;20335;-65
2022/08/26 03:26:47;;;;;;;45.75;33.85;;;;;;;;;;5031310;28;20240;-65
2022/08/26 03:31:56;;;;;;;41.85;32.55;;;;;;;;;;5030963;28;20209;-65
2022/08/26 03:34:22;;;;;;;45.00;31.92;;;;;;;;;;5024641;28;20182;-65
2022/08/26 03:36:48;;;;;;;37.50;29.05;;;;;;;;;;5030934;28;20209;-66
2022/08/26 03:39:13;;;;;;;36.63;26.52;;;;;;;;;;5021830;28;20438;-66
2022/08/26 03:41:39;;;;;;;35.92;25.98;;;;;;;;;;5031303;28;20178;-66
2022/08/26 03:44:07;;;;;;;39.28;26.50;;;;;;;;;;5024602;28;20191;-67
2022/08/26 03:46:33;;;;;;;40.70;24.65;;;;;;;;;;5029932;28;20181;-68
2022/08/26 03:49:00;;;;;;;33.78;24.73;;;;;;;;;;5025804;28;20682;-65
2022/08/26 03:51:25;;;;;;;37.58;24.05;;;;;;;;;;5028632;28;20185;-65
2022/08/26 03:53:50;;;;;;;32.35;24.05;;;;;;;;;;5026464;28;20198;-67
2022/08/26 03:56:16;;;;;;;31.40;24.67;;;;;;;;;;5023170;28;20213;-68
2022/08/26 03:58:43;;;;;;;34.50;23.92;;;;;;;;;;5028887;28;20205;-66
2022/08/26 04:01:10;;;;;;;31.60;23.13;;;;;;;;;;5023566;28;20225;-67
2022/08/26 04:06:19;;;;;;;36.03;23.50;;;;;;;;;;5023760;28;20204;-67
2022/08/26 04:08:44;;;;;;;33.53;22.13;;;;;;;;;;5025043;28;20281;-67
2022/08/26 04:11:19;;;;;;;32.15;23.17;;;;;;;;;;5015300;28;20196;-70
2022/08/26 04:13:45;;;;;;;36.95;23.23;;;;;;;;;;5024335;28;20217;-67
2022/08/26 04:16:11;;;;;;;32.28;22.40;;;;;;;;;;5009724;28;20257;-67
2022/08/26 04:18:37;;;;;;;32.70;23.17;;;;;;;;;;5025468;28;20182;-67
2022/08/26 04:21:04;;;;;;;33.42;23.15;;;;;;;;;;5018223;28;20709;-67
2022/08/26 04:23:29;;;;;;;27.20;21.52;;;;;;;;;;5029778;28;20253;-67
2022/08/26 04:25:55;;;;;;;28.08;20.60;;;;;;;;;;5027702;28;20388;-67
2022/08/26 04:28:21;;;;;;;30.80;21.38;;;;;;;;;;5029820;28;20200;-67
2022/08/26 04:30:48;;;;;;;33.38;22.00;;;;;;;;;;5029205;28;20185;-68
2022/08/26 04:33:13;;;;;;;31.13;21.30;;;;;;;;;;5040980;28;20210;-66
2022/08/26 04:35:38;;;;;;;27.67;21.23;;;;;;;;;;5029155;28;20237;-66
2022/08/26 04:38:04;;;;;;;37.33;21.75;;;;;;;;;;5029988;28;20210;-67
2022/08/26 04:40:29;;;;;;;34.83;22.02;;;;;;;;;;5026768;28;20520;-66
2022/08/26 04:42:55;;;;;;;29.77;22.20;;;;;;;;;;5025024;28;20174;-67
2022/08/26 04:45:21;;;;;;;29.40;22.75;;;;;;;;;;5028645;28;20186;-66
2022/08/26 04:47:46;;;;;;;31.73;22.05;;;;;;;;;;5029341;28;20560;-66
2022/08/26 04:50:12;;;;;;;29.20;20.20;;;;;;;;;;5029413;28;20260;-66
2022/08/26 04:52:37;;;;;;;31.63;23.35;;;;;;;;;;5029103;28;20249;-68
2022/08/26 04:55:04;;;;;;;35.60;21.92;;;;;;;;;;5023437;28;20214;-67
2022/08/26 04:57:30;;;;;;;28.88;21.40;;;;;;;;;;5029045;28;20257;-69
2022/08/26 04:59:56;;;;;;;25.45;21.35;;;;;;;;;;5022112;28;20234;-67
2022/08/26 05:02:22;;;;;;;29.00;20.50;;;;;;;;;;5029853;28;20178;-68
2022/08/26 05:04:47;;;;;;;32.58;21.73;;;;;;;;;;5020996;28;20190;-66
2022/08/26 05:07:12;;;;;;;34.35;23.00;;;;;;;;;;5028952;28;20240;-67
2022/08/26 05:09:39;;;;;;;33.22;22.33;;;;;;;;;;5019951;28;20270;-67
2022/08/26 05:12:04;;;;;;;30.00;23.35;;;;;;;;;;5027181;28;20571;-67
2022/08/26 05:14:30;;;;;;;30.23;22.50;;;;;;;;;;5025132;28;20182;-66
2022/08/26 05:16:56;;;;;;;31.00;22.33;;;;;;;;;;5016271;28;20186;-66
2022/08/26 05:19:22;;;;;;;30.80;23.05;;;;;;;;;;5024862;28;20233;-68
2022/08/26 05:21:48;;;;;;;36.70;24.83;;;;;;;;;;5024033;28;20186;-67
2022/08/26 05:24:13;;;;;;;37.72;25.38;;;;;;;;;;5026992;28;20233;-67
2022/08/26 05:26:39;;;;;;;35.20;24.60;;;;;;;;;;5018871;28;20178;-66
2022/08/26 05:29:05;;;;;;;35.40;23.42;;;;;;;;;;5028173;28;20236;-68
2022/08/26 05:31:32;;;;;;;30.42;23.40;;;;;;;;;;5028674;28;20201;-66
2022/08/26 05:33:59;;;;;;;36.30;25.45;;;;;;;;;;5020521;28;20222;-67
2022/08/26 05:36:27;;;;;;;34.28;24.40;;;;;;;;;;5015433;28;20238;-66
2022/08/26 05:38:52;;;;;;;33.67;24.88;;;;;;;;;;5022604;28;20185;-67
2022/08/26 05:41:27;;;;;;;33.33;23.77;;;;;;;;;;5028115;28;20257;-66
2022/08/26 05:43:54;;;;;;;40.95;25.10;;;;;;;;;;5029118;28;20268;-68
2022/08/26 05:46:20;;;;;;;37.60;24.15;;;;;;;;;;5027603;28;20248;-66
2022/08/26 05:48:45;;;;;;;32.65;22.40;;;;;;;;;;5028590;28;20186;-66
2022/08/26 05:51:12;;;;;;;33.17;23.13;;;;;;;;;;5028079;28;20557;-66
2022/08/26 05:53:39;;;;;;;30.83;21.77;;;;;;;;;;5028862;28;20190;-65
2022/08/26 05:56:06;;;;;;;36.20;23.48;;;;;;;;;;5025637;28;20552;-66
2022/08/26 05:58:33;;;;;;;32.20;23.27;;;;;;;;;;5028257;28;20292;-65
2022/08/26 06:01:02;;;;;;;31.30;21.92;;;;;;;;;;5025431;28;20277;-66
2022/08/26 06:03:28;;;;;;;32.65;21.13;;;;;;;;;;5023338;28;20182;-66
2022/08/26 06:05:54;;;;;;;32.35;21.98;;;;;;;;;;5028702;28;20272;-66
2022/08/26 06:08:20;;;;;;;29.48;21.70;;;;;;;;;;5035828;28;20185;-66
2022/08/26 06:10:51;;;;;;;32.00;21.67;;;;;;;;;;5024605;28;20716;-65
2022/08/26 06:13:18;;;;;;;29.23;20.30;;;;;;;;;;5016458;28;20205;-65
2022/08/26 06:15:45;;;;;;;34.10;20.42;;;;;;;;;;5023386;28;20264;-65
2022/08/26 06:18:13;;;;;;;26.50;19.55;;;;;;;;;;5027836;28;20236;-66
2022/08/26 06:20:42;;;;;;;26.95;19.25;;;;;;;;;;5021830;28;20190;-65
2022/08/26 06:25:56;;;;;;;27.98;19.13;;;;;;;;;;5019823;28;20325;-68
2022/08/26 06:28:23;;;;;;;31.13;19.13;;;;;;;;;;5028180;28;20265;-66
2022/08/26 06:30:49;;;;;;;25.38;17.77;;;;;;;;;;5020920;28;20199;-66
2022/08/26 06:33:15;;;;;;;34.95;19.40;;;;;;;;;;5035704;28;20242;-66
2022/08/26 06:35:41;;;;;;;27.52;17.55;;;;;;;;;;5013443;28;20650;-67
2022/08/26 06:38:08;;;;;;;22.67;16.30;;;;;;;;;;5028065;28;20186;-66
2022/08/26 06:40:41;;;;;;;22.58;15.25;;;;;;;;;;5020619;28;20548;-66
2022/08/26 06:43:07;;;;;;;24.80;14.90;;;;;;;;;;5013151;28;20259;-66
2022/08/26 06:45:33;;;;;;;26.85;15.55;;;;;;;;;;5028241;28;20711;-66
2022/08/26 06:47:59;;;;;;;20.05;14.00;;;;;;;;;;5028999;28;20332;-67
2022/08/26 06:50:24;;;;;;;20.83;13.95;;;;;;;;;;5025180;28;20183;-67
2022/08/26 06:52:51;;;;;;;20.90;13.23;;;;;;;;;;5027042;28;20300;-67
2022/08/26 06:55:16;;;;;;;21.60;12.90;;;;;;;;;;5026703;28;20853;-66
2022/08/26 06:57:42;;;;;;;20.92;12.48;;;;;;;;;;5023875;28;20186;-66
2022/08/26 07:00:09;;;;;;;18.17;11.55;;;;;;;;;;5027226;28;20225;-67
2022/08/26 07:02:34;;;;;;;19.17;10.18;;;;;;;;;;5022345;28;20182;-65
2022/08/26 07:05:00;;;;;;;15.80;10.23;;;;;;;;;;5031092;28;20221;-66
2022/08/26 07:07:25;;;;;;;20.75;9.93;;;;;;;;;;5033282;28;20320;-66
2022/08/26 07:09:50;;;;;;;14.45;8.88;;;;;;;;;;5034452;28;20527;-65
2022/08/26 07:12:16;;;;;;;20.02;9.63;;;;;;;;;;5024998;28;20642;-67
2022/08/26 07:14:42;;;;;;;21.83;9.30;;;;;;;;;;5023798;28;20174;-68
2022/08/26 07:17:07;;;;;;;16.50;8.50;;;;;;;;;;5029272;28;20579;-67
2022/08/26 07:19:33;;;;;;;23.00;9.70;;;;;;;;;;5031032;28;20536;-66
2022/08/26 07:22:04;;;;;;;23.30;10.55;;;;;;;;;;5030214;28;20648;-65
2022/08/26 07:24:31;;;;;;;15.10;8.23;;;;;;;;;;5017890;28;20597;-66
2022/08/26 07:27:01;;;;;;;16.85;7.93;;;;;;;;;;5027223;28;20259;-66
2022/08/26 07:29:28;;;;;;;13.23;7.55;;;;;;;;;;5013263;28;20236;-66
2022/08/26 07:31:53;;;;;;;13.05;7.03;;;;;;;;;;5028599;28;20510;-67
2022/08/26 07:34:19;;;;;;;16.48;6.82;;;;;;;;;;5030491;28;20220;-66
2022/08/26 07:36:44;;;;;;;16.02;7.47;;;;;;;;;;5025175;28;20197;-67
2022/08/26 07:39:10;;;;;;;13.40;6.13;;;;;;;;;;5030864;28;20238;-67
2022/08/26 07:41:35;;;;;;;17.55;6.38;;;;;;;;;;5024346;28;20178;-71
2022/08/26 07:44:01;;;;;;;16.02;6.60;;;;;;;;;;5029782;28;20174;-67
2022/08/26 07:46:27;;;;;;;13.82;5.18;;;;;;;;;;5022305;28;20182;-68
2022/08/26 07:48:52;;;;;;;15.20;5.93;;;;;;;;;;5031465;28;20186;-66
2022/08/26 07:51:19;;;;;;;14.05;4.72;;;;;;;;;;5030276;28;20182;-66
2022/08/26 07:53:45;;;;;;;11.77;4.40;;;;;;;;;;5029432;28;20198;-69
2022/08/26 07:56:10;;;;;;;11.63;4.30;;;;;;;;;;5025594;28;20590;-67
2022/08/26 07:58:36;;;;;;;12.88;5.05;;;;;;;;;;5029632;28;20610;-66
2022/08/26 08:01:02;;;;;;;13.63;4.45;;;;;;;;;;5021905;28;20183;-66
2022/08/26 08:03:28;;;;;;;15.15;5.13;;;;;;;;;;5027837;28;20190;-66
2022/08/26 08:05:53;;;;;;;14.40;5.15;;;;;;;;;;5020299;28;20619;-65
2022/08/26 08:08:19;;;;;;;11.77;5.22;;;;;;;;;;5033317;28;20190;-65
2022/08/26 08:10:45;;;;;;;13.07;5.32;;;;;;;;;;5023625;28;20197;-67
2022/08/26 08:13:10;;;;;;;9.88;4.63;;;;;;;;;;5024106;28;20701;-66
2022/08/26 08:15:36;;;;;;;14.80;4.70;;;;;;;;;;5025976;28;20316;-69
2022/08/26 08:18:02;;;;;;;16.02;5.22;;;;;;;;;;5022557;28;20189;-66
2022/08/26 08:20:28;;;;;;;21.65;5.35;;;;;;;;;;5025999;28;20259;-65
2022/08/26 08:22:54;;;;;;;13.82;5.10;;;;;;;;;;5030615;28;20178;-66
2022/08/26 08:25:21;;;;;;;11.70;4.60;;;;;;;;;;5029447;28;20628;-67
2022/08/26 08:27:49;;;;;;;12.23;4.78;;;;;;;;;;5029264;28;20193;-66
2022/08/26 08:30:18;;;;;;;16.67;5.05;;;;;;;;;;5030513;28;20178;-64
2022/08/26 08:32:43;;;;;;;10.20;3.65;;;;;;;;;;5041791;28;20602;-65
2022/08/26 08:35:13;;;;;;;13.88;3.70;;;;;;;;;;5030411;28;20273;-66
2022/08/26 08:37:39;;;;;;;12.95;3.83;;;;;;;;;;5026676;28;20308;-66
2022/08/26 08:40:07;;;;;;;13.50;4.15;;;;;;;;;;5019156;28;20224;-65
2022/08/26 08:42:37;;;;;;;12.15;3.72;;;;;;;;;;5028453;28;20663;-65
2022/08/26 08:45:11;;;;;;;10.77;3.40;;;;;;;;;;5017677;28;20273;-64
2022/08/26 08:47:43;;;;;;;13.02;3.50;;;;;;;;;;5024715;28;20657;-65
2022/08/26 08:50:21;;;;;;;14.70;3.65;;;;;;;;;;5030196;28;20579;-65
2022/08/26 08:53:09;;;;;;;10.73;3.42;;;;;;;;;;5019818;28;20214;-66
2022/08/26 08:55:41;;;;;;;12.75;4.00;;;;;;;;;;5017217;28;20178;-66
2022/08/26 08:58:22;;;;;;;9.85;3.53;;;;;;;;;;5024938;28;20178;-67
2022/08/26 09:00:56;;;;;;;11.23;3.40;;;;;;;;;;5026460;28;20246;-67
2022/08/26 09:03:44;;;;;;;16.05;3.83;;;;;;;;;;5025480;28;20255;-66
2022/08/26 09:06:16;;;;;;;8.30;3.40;;;;;;;;;;5024156;28;20337;-65
2022/08/26 09:08:43;;;;;;;8.30;3.22;;;;;;;;;;5030639;28;20643;-65
2022/08/26 09:11:09;;;;;;;11.27;3.38;;;;;;;;;;5020745;28;20201;-66
2022/08/26 09:13:36;;;;;;;14.80;3.75;;;;;;;;;;5028865;28;20231;-66
2022/08/26 09:16:07;;;;;;;14.10;3.72;;;;;;;;;;5028223;28;20185;-68
2022/08/26 09:18:36;;;;;;;11.25;3.95;;;;;;;;;;5028848;28;20269;-66
2022/08/26 09:21:05;;;;;;;10.52;3.42;;;;;;;;;;5024841;28;20229;-65
2022/08/26 09:23:34;;;;;;;10.35;4.00;;;;;;;;;;5024922;28;20698;-66
2022/08/26 09:26:02;;;;;;;9.55;3.92;;;;;;;;;;5022864;28;20225;-64
2022/08/26 09:28:29;;;;;;;8.77;3.50;;;;;;;;;;5009198;28;20190;-66
2022/08/26 09:31:09;;;;;;;9.40;3.97;;;;;;;;;;5023245;28;20185;-68
2022/08/26 09:33:34;;;;;;;8.38;3.92;;;;;;;;;;5020554;28;20202;-67
2022/08/26 09:36:21;;;;;;;7.30;3.28;;;;;;;;;;5025458;28;20703;-68
2022/08/26 09:38:49;;;;;;;10.25;3.90;;;;;;;;;;5021279;28;20620;-64
2022/08/26 09:41:30;;;;;;;11.20;4.10;;;;;;;;;;5024079;28;20186;-66
2022/08/26 09:44:10;;;;;;;11.48;3.85;;;;;;;;;;5021022;28;20602;-66
2022/08/26 09:46:38;;;;;;;9.02;3.90;;;;;;;;;;5008784;28;20183;-68
2022/08/26 09:49:23;;;;;;;10.00;3.53;;;;;;;;;;5022901;28;20264;-67
2022/08/26 09:52:22;;;;;;;13.25;3.88;;;;;;;;;;5026388;28;20217;-66
2022/08/26 09:55:21;;;;;;;9.88;3.38;;;;;;;;;;5025043;28;20398;-65
2022/08/26 09:57:53;;;;;;;10.38;3.45;;;;;;;;;;5016936;28;20293;-64
2022/08/26 10:00:29;;;;;;;9.10;3.15;;;;;;;;;;5028814;28;20539;-65
2022/08/26 10:02:57;;;;;;;15.13;3.33;;;;;;;;;;5025180;28;20182;-65
2022/08/26 10:05:30;;;;;;;6.93;3.15;;;;;;;;;;5013491;28;20196;-67
2022/08/26 10:07:57;;;;;;;10.93;3.40;;;;;;;;;;5030770;28;20485;-68
2022/08/26 10:10:34;;;;;;;11.60;3.20;;;;;;;;;;5029624;28;20186;-66
2022/08/26 10:13:11;;;;;;;6.57;2.25;;;;;;;;;;5027645;28;20205;-66
2022/08/26 10:15:45;;;;;;;6.32;2.42;;;;;;;;;;5028580;28;20272;-66
2022/08/26 10:18:23;;;;;;;7.63;2.95;;;;;;;;;;5020022;28;20428;-66
2022/08/26 10:21:05;;;;;;;8.43;2.00;;;;;;;;;;5015623;28;20196;-66
2022/08/26 10:23:37;;;;;;;6.88;2.10;;;;;;;;;;5030998;28;20194;-66
2022/08/26 10:26:18;;;;;;;8.52;2.58;;;;;;;;;;5031770;28;20222;-66
2022/08/26 10:29:02;;;;;;;7.25;2.58;;;;;;;;;;5026162;28;20255;-65
2022/08/26 10:31:36;;;;;;;10.93;2.45;;;;;;;;;;5021609;28;20260;-66
2022/08/26 10:34:02;;;;;;;8.75;2.75;;;;;;;;;;5012426;28;20193;-65
2022/08/26 10:36:50;;;;;;;9.40;2.53;;;;;;;;;;5012512;28;20189;-66
2022/08/26 10:39:29;;;;;;;7.18;2.17;;;;;;;;;;5027972;28;20240;-67
2022/08/26 10:42:06;;;;;;;5.82;2.45;;;;;;;;;;5031562;28;20181;-64
2022/08/26 10:44:36;;;;;;;7.45;2.30;;;;;;;;;;5026642;28;20550;-66
2022/08/26 10:47:32;;;;;;;9.68;2.45;;;;;;;;;;5023999;28;20190;-66
2022/08/26 10:49:58;;;;;;;5.05;2.42;;;;;;;;;;5018599;28;20201;-65
2022/08/26 10:53:00;;;;;;;9.60;2.10;;;;;;;;;;5024076;28;20199;-65
2022/08/26 10:55:54;;;;;;;7.80;2.03;;;;;;;;;;5020245;28;20192;-65
2022/08/26 10:58:22;;;;;;;5.97;2.08;;;;;;;;;;5031784;28;20189;-68
2022/08/26 11:03:38;;;;;;;12.02;2.05;;;;;;;;;;5019004;28;20299;-65
2022/08/26 11:06:17;;;;;;;8.32;1.60;;;;;;;;;;5032369;28;20271;-67
2022/08/26 11:09:04;;;;;;;7.68;1.98;;;;;;;;;;5039142;28;20189;-67
2022/08/26 11:11:40;;;;;;;7.28;1.85;;;;;;;;;;5030518;28;20194;-65
2022/08/26 11:14:20;;;;;;;6.10;1.50;;;;;;;;;;5029679;28;20212;-66
2022/08/26 11:16:50;;;;;;;7.93;1.73;;;;;;;;;;5025015;28;20194;-70
2022/08/26 11:19:50;;;;;;;8.10;1.63;;;;;;;;;;5020397;28;20208;-63
2022/08/26 11:22:31;;;;;;;5.28;1.77;;;;;;;;;;5023993;28;20183;-63
2022/08/26 11:24:57;;;;;;;6.90;1.80;;;;;;;;;;5021014;28;20313;-66
2022/08/26 11:27:38;;;;;;;8.10;2.17;;;;;;;;;;5020959;28;20214;-66
2022/08/26 11:30:27;;;;;;;7.25;1.98;;;;;;;;;;5031534;28;20196;-66
2022/08/26 11:32:56;;;;;;;6.93;1.83;;;;;;;;;;5031393;28;20246;-67
2022/08/26 11:35:23;;;;;;;7.32;1.67;;;;;;;;;;5030157;28;20185;-67
2022/08/26 11:37:53;;;;;;;7.30;1.88;;;;;;;;;;5022754;28;20657;-65
2022/08/26 11:40:31;;;;;;;10.82;2.10;;;;;;;;;;5019460;28;20249;-65
2022/08/26 11:43:00;;;;;;;6.80;2.25;;;;;;;;;;5024813;28;20234;-66
2022/08/26 11:45:39;;;;;;;6.40;1.70;;;;;;;;;;5031296;28;20193;-66
2022/08/26 11:48:17;;;;;;;6.60;1.60;;;;;;;;;;5021853;28;20182;-64
2022/08/26 11:50:54;;;;;;;8.27;1.85;;;;;;;;;;5018793;28;20262;-66
2022/08/26 11:53:19;;;;;;;8.77;1.60;;;;;;;;;;5021533;28;20332;-70
2022/08/26 11:55:45;;;;;;;10.75;1.77;;;;;;;;;;5031031;28;20304;-69
2022/08/26 11:58:13;;;;;;;5.50;1.60;;;;;;;;;;5019569;28;20273;-67
2022/08/26 12:00:59;;;;;;;8.80;2.05;;;;;;;;;;5030324;28;20257;-67
2022/08/26 12:03:45;;;;;;;7.72;2.00;;;;;;;;;;5018001;28;20213;-67
2022/08/26 12:06:22;;;;;;;9.07;2.17;;;;;;;;;;5030867;28;20200;-67
2022/08/26 12:08:48;;;;;;;7.05;1.60;;;;;;;;;;5038036;28;20182;-66
2022/08/26 12:11:26;;;;;;;6.68;1.48;;;;;;;;;;5022992;28;20182;-67
2022/08/26 12:13:57;;;;;;;7.70;1.85;;;;;;;;;;5016405;28;20206;-66
2022/08/26 12:16:28;;;;;;;8.20;2.13;;;;;;;;;;5030268;28;20589;-65
2022/08/26 12:18:54;;;;;;;8.15;1.90;;;;;;;;;;5029339;28;20213;-65
2022/08/26 12:21:30;;;;;;;9.32;1.80;;;;;;;;;;5029927;28;20577;-66
2022/08/26 12:23:58;;;;;;;7.32;1.80;;;;;;;;;;5027053;28;20178;-64
2022/08/26 12:26:33;;;;;;;10.10;1.77;;;;;;;;;;5030249;28;20174;-64
2022/08/26 12:29:01;;;;;;;7.28;1.90;;;;;;;;;;5027469;28;20673;-64
2022/08/26 12:31:36;;;;;;;8.10;1.95;;;;;;;;;;5037274;28;20908;-64
2022/08/26 12:34:04;;;;;;;14.65;2.17;;;;;;;;;;5026362;28;20240;-65
2022/08/26 12:36:35;;;;;;;8.25;1.55;;;;;;;;;;5029478;28;20196;-65
2022/08/26 12:39:12;;;;;;;7.55;2.10;;;;;;;;;;5026422;28;20259;-65
2022/08/26 12:41:45;;;;;;;9.32;1.92;;;;;;;;;;5028223;28;20185;-65
2022/08/26 12:44:49;;;;;;;8.63;2.08;;;;;;;;;;5024528;28;20178;-65
2022/08/26 12:47:21;;;;;;;9.57;1.88;;;;;;;;;;5025776;28;20197;-66
2022/08/26 12:49:48;;;;;;;9.25;2.35;;;;;;;;;;5029743;28;20543;-64
2022/08/26 12:52:29;;;;;;;12.27;2.38;;;;;;;;;;5028020;28;20186;-64
2022/08/26 12:55:01;;;;;;;7.93;1.95;;;;;;;;;;5025493;28;20182;-65
2022/08/26 12:57:30;;;;;;;9.52;2.22;;;;;;;;;;5026237;28;20191;-65
2022/08/26 13:00:34;;;;;;;11.32;2.28;;;;;;;;;;5025906;28;20174;-64
2022/08/26 13:03:00;;;;;;;8.35;1.73;;;;;;;;;;5015872;28;20214;-67
2022/08/26 13:05:32;;;;;;;9.77;2.08;;;;;;;;;;5028523;28;20182;-68
2022/08/26 13:08:14;;;;;;;6.05;1.40;;;;;;;;;;5031409;28;20657;-66
2022/08/26 13:10:44;;;;;;;5.70;1.70;;;;;;;;;;5016203;28;20182;-65
2022/08/26 13:13:09;;;;;;;7.93;1.73;;;;;;;;;;5020053;28;20309;-69
2022/08/26 13:15:35;;;;;;;6.05;1.70;;;;;;;;;;5027794;28;20636;-64
2022/08/26 13:18:01;;;;;;;4.18;1.30;;;;;;;;;;5022927;28;20208;-71
2022/08/26 13:20:27;;;;;;;4.68;2.15;;;;;;;;;;5024160;28;20170;-67
2022/08/26 13:22:52;;;;;;;9.38;2.35;;;;;;;;;;5023095;28;20197;-66
2022/08/26 13:25:17;;;;;;;7.22;2.03;;;;;;;;;;5021261;28;20230;-66
2022/08/26 13:27:43;;;;;;;7.32;2.10;;;;;;;;;;5024849;28;20178;-66
2022/08/26 13:30:09;;;;;;;9.20;2.22;;;;;;;;;;5019178;28;20182;-66
2022/08/26 13:32:35;;;;;;;5.80;1.98;;;;;;;;;;5035466;28;20244;-67
2022/08/26 13:35:00;;;;;;;8.95;1.83;;;;;;;;;;5026974;28;20252;-66
2022/08/26 13:37:26;;;;;;;8.63;1.70;;;;;;;;;;5027950;28;20650;-65
2022/08/26 13:39:53;;;;;;;7.13;1.73;;;;;;;;;;5028500;28;20186;-65
2022/08/26 13:42:19;;;;;;;4.22;1.40;;;;;;;;;;5024812;28;20171;-67
2022/08/26 13:44:46;;;;;;;4.38;1.70;;;;;;;;;;5027191;28;20201;-66
2022/08/26 13:47:12;;;;;;;7.22;2.00;;;;;;;;;;5028792;28;20182;-65
2022/08/26 13:49:38;;;;;;;3.95;1.67;;;;;;;;;;5026367;28;20276;-68
2022/08/26 13:52:03;;;;;;;5.75;1.88;;;;;;;;;;5027371;28;20193;-65
2022/08/26 13:54:29;;;;;;;6.80;1.95;;;;;;;;;;5026556;28;20190;-66
2022/08/26 13:56:54;;;;;;;4.72;1.63;;;;;;;;;;5028043;28;20521;-64
2022/08/26 13:59:19;;;;;;;4.15;1.60;;;;;;;;;;5027371;28;20588;-66
2022/08/26 14:01:45;;;;;;;5.75;1.50;;;;;;;;;;5028014;28;20568;-70
2022/08/26 14:04:10;;;;;;;8.45;1.77;;;;;;;;;;5014725;28;20241;-65
2022/08/26 14:06:36;;;;;;;9.45;2.00;;;;;;;;;;5023072;28;20269;-64
2022/08/26 14:09:02;;;;;;;4.30;1.80;;;;;;;;;;5026589;28;20506;-71
2022/08/26 14:11:28;;;;;;;5.35;1.77;;;;;;;;;;5028187;28;20182;-67
2022/08/26 14:13:54;;;;;;;6.03;1.63;;;;;;;;;;5027351;28;20194;-67
2022/08/26 14:16:24;;;;;;;1.67;1.15;;;;;;;;;;5028812;28;20182;-66
2022/08/26 14:18:49;;;;;;;5.43;1.58;;;;;;;;;;5013477;28;20259;-67
2022/08/26 14:21:15;;;;;;;5.18;1.33;;;;;;;;;;5027838;28;20595;-69
2022/08/26 14:23:40;;;;;;;4.20;1.27;;;;;;;;;;5027331;28;20543;-66
2022/08/26 14:26:09;;;;;;;4.80;1.20;;;;;;;;;;5026922;28;20218;-67
2022/08/26 14:28:36;;;;;;;5.60;1.30;;;;;;;;;;5022948;28;20928;-65
2022/08/26 14:31:02;;;;;;;3.70;1.48;;;;;;;;;;5031466;28;20182;-64
2022/08/26 14:33:31;;;;;;;3.55;1.42;;;;;;;;;;5028555;28;20227;-65
2022/08/26 14:36:26;;;;;;;4.63;1.50;;;;;;;;;;5026872;28;20194;-63
2022/08/26 14:38:42;;;;;;;4.68;1.40;;;;;;;;;;5019800;28;20191;-66
2022/08/26 14:41:08;;;;;;;3.90;1.50;;;;;;;;;;5026712;28;20227;-64
2022/08/26 14:43:33;;;;;;;5.88;1.20;;;;;;;;;;5022470;28;20320;-65
2022/08/26 14:45:59;;;;;;;4.43;1.65;;;;;;;;;;5025141;28;20724;-65
2022/08/26 14:48:24;;;;;;;3.65;1.60;;;;;;;;;;5022395;28;20186;-72
2022/08/26 14:50:50;;;;;;;4.18;1.40;;;;;;;;;;5024205;28;20205;-69
2022/08/26 14:55:59;;;;;;;5.55;1.70;;;;;;;;;;5028253;28;20244;-66